Time;durP1;ratioP1;P1;durP2;ratioP2;P2;SDS_P1;SDS_P2;PMS_P1;PMS_P2;Temp;Humidity;BMP_temperature;BMP_pressure;BME280_temperature;BME280_humidity;BME280_pressure;Samples;Min_cycle;Max_cycle;Signal;HPM_P1;HPM_P2
2023/02/27 00:01:21;;;;;;;5.50;3.10;;;;;;;;;;6186065;28;20312;-79
2023/02/27 00:04:29;;;;;;;3.53;2.90;;;;;;;;;;6185761;28;20295;-79
2023/02/27 00:07:37;;;;;;;2.97;2.70;;;;;;;;;;6168714;28;20276;-79
2023/02/27 00:10:42;;;;;;;6.60;3.00;;;;;;;;;;6186617;28;20303;-79
2023/02/27 00:13:48;;;;;;;3.50;3.20;;;;;;;;;;6168462;28;20291;-79
2023/02/27 00:16:54;;;;;;;2.97;2.77;;;;;;;;;;6186533;28;20313;-79
2023/02/27 00:20:01;;;;;;;3.83;2.97;;;;;;;;;;6185639;28;20312;-80
2023/02/27 00:23:06;;;;;;;4.97;2.93;;;;;;;;;;6200814;28;20289;-79
2023/02/27 00:26:12;;;;;;;5.47;3.00;;;;;;;;;;6186300;28;20376;-80
2023/02/27 00:29:18;;;;;;;4.03;2.47;;;;;;;;;;6185520;28;20311;-79
2023/02/27 00:32:29;;;;;;;6.27;2.93;;;;;;;;;;6186294;28;20311;-79
2023/02/27 00:35:36;;;;;;;5.83;2.60;;;;;;;;;;6168351;28;20296;-79
2023/02/27 00:38:41;;;;;;;2.63;2.40;;;;;;;;;;6183966;28;20291;-79
2023/02/27 00:41:46;;;;;;;3.07;2.70;;;;;;;;;;6186136;28;20299;-79
2023/02/27 00:44:51;;;;;;;3.17;2.70;;;;;;;;;;6168295;28;20308;-80
2023/02/27 00:48:01;;;;;;;4.47;2.83;;;;;;;;;;6185722;28;20295;-79
2023/02/27 00:51:09;;;;;;;3.97;3.10;;;;;;;;;;6184811;28;20298;-79
2023/02/27 00:54:14;;;;;;;3.93;3.07;;;;;;;;;;6183103;28;20299;-79
2023/02/27 00:57:20;;;;;;;6.03;3.17;;;;;;;;;;6199673;28;20266;-79
2023/02/27 01:00:29;;;;;;;3.17;2.57;;;;;;;;;;6196112;28;20374;-78
2023/02/27 01:03:35;;;;;;;4.40;2.77;;;;;;;;;;6163843;28;20297;-78
2023/02/27 01:06:41;;;;;;;6.33;2.77;;;;;;;;;;6178995;28;20312;-79
2023/02/27 01:09:47;;;;;;;4.70;2.70;;;;;;;;;;6197291;28;20280;-79
2023/02/27 01:12:52;;;;;;;4.13;2.90;;;;;;;;;;6193022;28;20627;-79
2023/02/27 01:15:57;;;;;;;6.27;2.97;;;;;;;;;;6193530;28;20301;-79
2023/02/27 01:19:02;;;;;;;4.30;3.00;;;;;;;;;;6192120;28;20484;-80
2023/02/27 01:22:12;;;;;;;3.00;2.80;;;;;;;;;;6185345;28;20304;-80
2023/02/27 01:25:18;;;;;;;6.10;3.37;;;;;;;;;;6183662;28;20308;-79
2023/02/27 01:28:23;;;;;;;4.40;2.70;;;;;;;;;;6183616;28;20291;-79
2023/02/27 01:31:29;;;;;;;4.43;2.57;;;;;;;;;;6184832;28;20307;-79
2023/02/27 01:34:34;;;;;;;4.37;3.03;;;;;;;;;;6184802;28;20296;-80
2023/02/27 01:37:41;;;;;;;2.93;2.73;;;;;;;;;;6182727;28;20275;-79
2023/02/27 01:40:48;;;;;;;5.73;2.70;;;;;;;;;;6184709;28;20560;-79
2023/02/27 01:43:58;;;;;;;3.50;3.00;;;;;;;;;;6198338;28;20308;-80
2023/02/27 01:47:03;;;;;;;2.77;2.57;;;;;;;;;;6185734;28;20321;-80
2023/02/27 01:50:11;;;;;;;5.37;2.80;;;;;;;;;;6168127;28;20308;-79
2023/02/27 01:53:19;;;;;;;3.43;2.50;;;;;;;;;;6184867;28;20477;-79
2023/02/27 01:56:26;;;;;;;2.90;2.70;;;;;;;;;;6168552;28;20295;-80
2023/02/27 01:59:31;;;;;;;4.00;2.60;;;;;;;;;;6167585;28;20380;-79
2023/02/27 02:02:39;;;;;;;4.00;2.90;;;;;;;;;;6184579;28;20299;-79
2023/02/27 02:05:45;;;;;;;4.37;2.73;;;;;;;;;;6185650;28;20296;-79
2023/02/27 02:08:53;;;;;;;4.67;2.50;;;;;;;;;;6183777;28;20323;-79
2023/02/27 02:11:58;;;;;;;2.70;2.50;;;;;;;;;;6167110;28;20446;-79
2023/02/27 02:15:04;;;;;;;3.07;2.50;;;;;;;;;;6184797;28;20312;-79
2023/02/27 02:18:20;;;;;;;3.30;2.47;;;;;;;;;;6167217;28;20304;-79
2023/02/27 02:21:54;;;;;;;7.37;2.60;;;;;;;;;;6184832;28;20292;-80
2023/02/27 02:25:28;;;;;;;4.13;2.50;;;;;;;;;;6200350;28;20628;-79
2023/02/27 02:28:59;;;;;;;2.20;2.10;;;;;;;;;;6203200;28;20459;-80
2023/02/27 02:32:58;;;;;;;2.40;2.20;;;;;;;;;;6148396;28;20384;-80
2023/02/27 02:36:45;;;;;;;2.47;2.27;;;;;;;;;;6088078;28;20591;-80
2023/02/27 02:40:00;;;;;;;3.00;2.50;;;;;;;;;;6187538;28;20301;-80
2023/02/27 02:43:09;;;;;;;6.53;2.40;;;;;;;;;;6188161;28;20308;-79
2023/02/27 02:46:16;;;;;;;2.30;2.20;;;;;;;;;;6172278;28;20296;-79
2023/02/27 02:49:25;;;;;;;4.40;2.03;;;;;;;;;;6188610;28;20305;-79
2023/02/27 02:52:34;;;;;;;3.50;1.90;;;;;;;;;;6187046;28;20292;-78
2023/02/27 02:55:43;;;;;;;3.43;1.90;;;;;;;;;;6187502;28;20272;-80
2023/02/27 02:58:55;;;;;;;4.13;1.90;;;;;;;;;;6171038;28;20304;-78
2023/02/27 03:02:04;;;;;;;2.33;2.13;;;;;;;;;;6188651;28;20303;-80
2023/02/27 03:05:15;;;;;;;2.17;1.97;;;;;;;;;;6187499;28;20300;-79
2023/02/27 03:08:22;;;;;;;2.10;2.00;;;;;;;;;;6170579;28;20292;-80
2023/02/27 03:11:33;;;;;;;3.80;1.87;;;;;;;;;;6170691;28;20292;-80
2023/02/27 03:14:40;;;;;;;3.50;2.27;;;;;;;;;;6154512;28;20602;-80
2023/02/27 03:17:49;;;;;;;1.80;1.80;;;;;;;;;;6187588;28;20293;-80
2023/02/27 03:20:57;;;;;;;2.50;1.90;;;;;;;;;;6170405;28;20249;-79
2023/02/27 03:24:06;;;;;;;1.87;1.80;;;;;;;;;;6186389;28;20304;-79
2023/02/27 03:27:16;;;;;;;1.73;1.63;;;;;;;;;;6171807;28;20294;-79
2023/02/27 03:30:28;;;;;;;4.20;1.93;;;;;;;;;;6170264;28;20461;-79
2023/02/27 03:33:38;;;;;;;3.80;1.80;;;;;;;;;;6169728;28;20298;-80
2023/02/27 03:36:49;;;;;;;2.43;1.80;;;;;;;;;;6186735;28;20569;-79
2023/02/27 03:40:01;;;;;;;1.63;1.53;;;;;;;;;;6169662;28;20375;-79
2023/02/27 03:43:16;;;;;;;3.17;1.83;;;;;;;;;;6169547;28;20298;-79
2023/02/27 03:46:27;;;;;;;3.03;1.63;;;;;;;;;;6185008;28;20413;-79
2023/02/27 03:49:33;;;;;;;2.00;1.70;;;;;;;;;;6169432;28;20301;-79
2023/02/27 03:52:39;;;;;;;3.13;1.63;;;;;;;;;;6153837;28;20579;-78
2023/02/27 03:55:47;;;;;;;2.83;2.10;;;;;;;;;;6170013;28;20298;-78
2023/02/27 03:58:54;;;;;;;2.17;2.00;;;;;;;;;;6185328;28;20460;-80
2023/02/27 04:02:01;;;;;;;2.00;1.80;;;;;;;;;;6168569;28;20305;-78
2023/02/27 04:05:08;;;;;;;2.23;2.07;;;;;;;;;;6184691;28;20317;-80
2023/02/27 04:08:51;;;;;;;2.47;2.27;;;;;;;;;;6162566;28;20297;-79
2023/02/27 04:12:27;;;;;;;3.53;2.10;;;;;;;;;;6169881;28;20297;-78
2023/02/27 04:15:43;;;;;;;5.80;1.80;;;;;;;;;;6185718;28;20300;-78
2023/02/27 04:19:00;;;;;;;2.03;2.00;;;;;;;;;;6185573;28;20306;-79
2023/02/27 04:22:14;;;;;;;2.10;1.90;;;;;;;;;;6186387;28;20451;-79
2023/02/27 04:25:39;;;;;;;2.40;2.00;;;;;;;;;;6185988;28;20597;-79
2023/02/27 04:28:47;;;;;;;2.03;1.93;;;;;;;;;;6185119;28;20297;-78
2023/02/27 04:31:58;;;;;;;3.03;1.80;;;;;;;;;;6186479;28;20291;-79
2023/02/27 04:35:08;;;;;;;5.90;1.80;;;;;;;;;;6186022;28;20331;-79
2023/02/27 04:38:19;;;;;;;2.73;1.80;;;;;;;;;;6186131;28;20291;-78
2023/02/27 04:41:27;;;;;;;1.70;1.70;;;;;;;;;;6186153;28;20294;-79
2023/02/27 04:44:35;;;;;;;2.47;1.63;;;;;;;;;;6184955;28;20322;-79
2023/02/27 04:47:46;;;;;;;3.20;1.47;;;;;;;;;;6168353;28;20311;-79
2023/02/27 04:50:55;;;;;;;2.60;1.77;;;;;;;;;;6185811;28;20295;-79
2023/02/27 04:54:06;;;;;;;1.97;1.97;;;;;;;;;;6185245;28;20606;-79
2023/02/27 04:57:18;;;;;;;3.90;2.00;;;;;;;;;;6185960;28;20297;-80
2023/02/27 05:00:24;;;;;;;1.70;1.60;;;;;;;;;;6184964;28;20301;-81
2023/02/27 05:03:33;;;;;;;2.07;1.60;;;;;;;;;;6185556;28;20307;-80
2023/02/27 05:06:41;;;;;;;1.73;1.67;;;;;;;;;;6186224;28;20357;-80
2023/02/27 05:09:49;;;;;;;3.13;2.00;;;;;;;;;;6185194;28;20310;-78
2023/02/27 05:12:57;;;;;;;1.97;1.40;;;;;;;;;;6184962;28;20297;-80
2023/02/27 05:16:07;;;;;;;1.83;1.57;;;;;;;;;;6185712;28;20303;-80
2023/02/27 05:19:15;;;;;;;1.77;1.67;;;;;;;;;;6185077;28;20299;-78
2023/02/27 05:22:29;;;;;;;2.00;1.90;;;;;;;;;;6183611;28;20298;-78
2023/02/27 05:25:37;;;;;;;1.80;1.70;;;;;;;;;;6168820;28;20279;-79
2023/02/27 05:28:50;;;;;;;3.77;2.00;;;;;;;;;;6185071;28;20314;-79
2023/02/27 05:32:00;;;;;;;2.40;1.70;;;;;;;;;;6185588;28;20293;-80
2023/02/27 05:35:17;;;;;;;3.97;1.70;;;;;;;;;;6184683;28;20316;-79
2023/02/27 05:38:25;;;;;;;1.40;1.37;;;;;;;;;;6185470;28;20299;-79
2023/02/27 05:41:33;;;;;;;1.80;1.70;;;;;;;;;;6185562;28;20302;-81
2023/02/27 05:44:40;;;;;;;1.80;1.70;;;;;;;;;;6185360;28;20332;-80
2023/02/27 05:47:49;;;;;;;1.90;1.80;;;;;;;;;;6184875;28;20293;-79
2023/02/27 05:50:56;;;;;;;1.60;1.50;;;;;;;;;;6187058;28;20291;-80
2023/02/27 05:54:03;;;;;;;1.73;1.63;;;;;;;;;;6179396;28;20319;-78
2023/02/27 05:57:12;;;;;;;3.13;1.80;;;;;;;;;;6200513;28;20257;-78
2023/02/27 06:00:20;;;;;;;1.80;1.70;;;;;;;;;;6175917;28;20305;-78
2023/02/27 06:03:27;;;;;;;1.73;1.63;;;;;;;;;;6191618;28;20467;-79
2023/02/27 06:06:35;;;;;;;1.57;1.57;;;;;;;;;;6174914;28;20311;-80
2023/02/27 06:09:41;;;;;;;1.63;1.53;;;;;;;;;;6191716;28;20291;-80
2023/02/27 06:12:46;;;;;;;1.90;1.80;;;;;;;;;;6174983;28;20313;-79
2023/02/27 06:15:51;;;;;;;1.83;1.60;;;;;;;;;;6192372;28;20309;-79
2023/02/27 06:18:57;;;;;;;1.80;1.67;;;;;;;;;;6173028;28;20493;-79
2023/02/27 06:22:05;;;;;;;1.67;1.57;;;;;;;;;;6190044;28;20305;-79
2023/02/27 06:25:11;;;;;;;3.30;1.70;;;;;;;;;;6189297;28;20311;-80
2023/02/27 06:28:16;;;;;;;3.03;1.50;;;;;;;;;;6189635;28;20298;-79
2023/02/27 06:31:21;;;;;;;1.53;1.50;;;;;;;;;;6172924;28;20291;-79
2023/02/27 06:34:26;;;;;;;2.50;2.00;;;;;;;;;;6161956;28;20491;-78
2023/02/27 06:37:35;;;;;;;1.50;1.50;;;;;;;;;;6188361;28;20280;-79
2023/02/27 06:40:41;;;;;;;3.80;1.60;;;;;;;;;;6190007;28;20266;-79
2023/02/27 06:43:46;;;;;;;1.53;1.53;;;;;;;;;;6189901;28;20296;-79
2023/02/27 06:46:52;;;;;;;2.30;1.53;;;;;;;;;;6190149;28;20297;-78
2023/02/27 06:49:57;;;;;;;2.57;1.50;;;;;;;;;;6171926;28;20585;-78
2023/02/27 06:53:04;;;;;;;1.47;1.37;;;;;;;;;;6188346;28;20311;-79
2023/02/27 06:56:11;;;;;;;1.97;1.87;;;;;;;;;;6188859;28;20316;-80
2023/02/27 06:59:18;;;;;;;1.40;1.40;;;;;;;;;;6171129;28;20301;-79
2023/02/27 07:02:24;;;;;;;1.33;1.30;;;;;;;;;;6188367;28;20296;-79
2023/02/27 07:05:30;;;;;;;2.97;1.70;;;;;;;;;;6189111;28;20310;-79
2023/02/27 07:08:36;;;;;;;3.10;1.40;;;;;;;;;;6188607;28;20289;-80
2023/02/27 07:12:05;;;;;;;2.83;1.80;;;;;;;;;;6187641;28;20535;-78
2023/02/27 07:15:12;;;;;;;3.47;1.60;;;;;;;;;;6188568;28;20308;-79
2023/02/27 07:18:19;;;;;;;1.30;1.30;;;;;;;;;;6188329;28;20302;-79
2023/02/27 07:21:23;;;;;;;2.07;1.27;;;;;;;;;;6188094;28;20295;-80
2023/02/27 07:24:30;;;;;;;1.50;1.50;;;;;;;;;;6187879;28;20306;-79
2023/02/27 07:27:38;;;;;;;1.40;1.40;;;;;;;;;;6187795;28;20311;-79
2023/02/27 07:30:43;;;;;;;1.43;1.37;;;;;;;;;;6188731;28;20291;-79
2023/02/27 07:33:48;;;;;;;2.10;1.30;;;;;;;;;;6189591;28;20500;-79
2023/02/27 07:36:54;;;;;;;1.40;1.37;;;;;;;;;;6190512;28;20314;-78
2023/02/27 07:40:01;;;;;;;1.50;1.40;;;;;;;;;;6190732;28;20303;-78
2023/02/27 07:43:06;;;;;;;1.57;1.57;;;;;;;;;;6187520;28;20301;-78
2023/02/27 07:46:13;;;;;;;1.30;1.30;;;;;;;;;;6188834;28;20294;-78
2023/02/27 07:49:19;;;;;;;2.10;1.50;;;;;;;;;;6187934;28;20291;-79
2023/02/27 07:52:25;;;;;;;1.30;1.30;;;;;;;;;;6187184;28;20344;-79
2023/02/27 07:55:32;;;;;;;2.53;1.80;;;;;;;;;;6185978;28;20615;-78
2023/02/27 07:58:39;;;;;;;1.57;1.57;;;;;;;;;;6186166;28;20305;-79
2023/02/27 08:01:44;;;;;;;1.60;1.60;;;;;;;;;;6187749;28;20289;-79
2023/02/27 08:04:50;;;;;;;2.63;1.40;;;;;;;;;;6170157;28;20302;-81
2023/02/27 08:07:55;;;;;;;1.30;1.30;;;;;;;;;;6187286;28;20459;-77
2023/02/27 08:11:02;;;;;;;1.83;1.80;;;;;;;;;;6187346;28;20292;-78
2023/02/27 08:14:07;;;;;;;1.43;1.43;;;;;;;;;;6187147;28;20398;-79
2023/02/27 08:17:12;;;;;;;1.40;1.40;;;;;;;;;;6187593;28;20298;-79
2023/02/27 08:20:21;;;;;;;1.53;1.53;;;;;;;;;;6187110;28;20313;-79
2023/02/27 08:23:26;;;;;;;1.50;1.40;;;;;;;;;;6186394;28;20302;-80
2023/02/27 08:26:33;;;;;;;1.77;1.63;;;;;;;;;;6187399;28;20592;-80
2023/02/27 08:29:42;;;;;;;1.73;1.67;;;;;;;;;;6169593;28;20550;-80
2023/02/27 08:32:48;;;;;;;1.40;1.40;;;;;;;;;;6187070;28;20446;-79
2023/02/27 08:35:54;;;;;;;1.73;1.73;;;;;;;;;;6187795;28;20300;-79
2023/02/27 08:38:59;;;;;;;2.63;1.50;;;;;;;;;;6170119;28;20308;-80
2023/02/27 08:42:06;;;;;;;1.57;1.47;;;;;;;;;;6187861;28;20297;-78
2023/02/27 08:45:15;;;;;;;1.57;1.47;;;;;;;;;;6172473;28;20301;-79
2023/02/27 08:48:20;;;;;;;1.60;1.23;;;;;;;;;;6186981;28;20301;-80
2023/02/27 08:51:25;;;;;;;1.23;1.23;;;;;;;;;;6187181;28;20296;-80
2023/02/27 08:54:31;;;;;;;1.73;1.63;;;;;;;;;;6185787;28;20314;-81
2023/02/27 08:57:39;;;;;;;1.70;1.50;;;;;;;;;;6185623;28;20494;-79
2023/02/27 09:00:45;;;;;;;1.80;1.30;;;;;;;;;;6186361;28;20312;-79
2023/02/27 09:03:50;;;;;;;1.43;1.40;;;;;;;;;;6186114;28;20363;-80
2023/02/27 09:06:56;;;;;;;3.80;1.27;;;;;;;;;;6169190;28;20304;-78
2023/02/27 09:10:01;;;;;;;1.10;1.10;;;;;;;;;;6185791;28;20598;-79
2023/02/27 09:13:09;;;;;;;2.00;2.00;;;;;;;;;;6169061;28;20296;-78
2023/02/27 09:16:14;;;;;;;1.47;1.37;;;;;;;;;;6169487;28;20301;-79
2023/02/27 09:19:19;;;;;;;1.30;1.30;;;;;;;;;;6185810;28;20295;-78
2023/02/27 09:22:25;;;;;;;1.10;1.10;;;;;;;;;;6184822;28;20270;-80
2023/02/27 09:25:30;;;;;;;1.97;1.33;;;;;;;;;;6186023;28;20267;-79
2023/02/27 09:28:41;;;;;;;3.57;1.33;;;;;;;;;;6169391;28;20302;-80
2023/02/27 09:31:46;;;;;;;1.40;1.40;;;;;;;;;;6185786;28;20505;-80
2023/02/27 09:34:51;;;;;;;1.77;1.67;;;;;;;;;;6185956;28;20545;-79
2023/02/27 09:37:58;;;;;;;1.43;1.20;;;;;;;;;;6190088;28;20294;-80
2023/02/27 09:41:04;;;;;;;1.30;1.30;;;;;;;;;;6173722;28;20381;-79
2023/02/27 09:44:30;;;;;;;1.60;1.50;;;;;;;;;;6190771;28;20299;-79
2023/02/27 09:47:53;;;;;;;1.23;1.10;;;;;;;;;;6189870;28;20310;-79
2023/02/27 09:50:59;;;;;;;1.10;1.10;;;;;;;;;;6190572;28;20303;-79
2023/02/27 09:54:06;;;;;;;1.20;1.10;;;;;;;;;;6190046;28;20295;-79
2023/02/27 09:57:16;;;;;;;1.00;1.00;;;;;;;;;;6172994;28;20299;-80
2023/02/27 10:00:45;;;;;;;1.80;1.40;;;;;;;;;;6189382;28;20292;-80
2023/02/27 10:04:03;;;;;;;1.03;1.03;;;;;;;;;;6190205;28;20303;-79
2023/02/27 10:07:16;;;;;;;1.70;1.60;;;;;;;;;;6190250;28;20305;-78
2023/02/27 10:10:27;;;;;;;1.20;1.20;;;;;;;;;;6189137;28;20344;-80
2023/02/27 10:13:47;;;;;;;1.30;1.30;;;;;;;;;;6188286;28;20304;-80
2023/02/27 10:16:54;;;;;;;1.10;1.10;;;;;;;;;;6189357;28;20303;-79
2023/02/27 10:20:03;;;;;;;1.10;1.10;;;;;;;;;;6189271;28;20474;-79
2023/02/27 10:23:15;;;;;;;1.10;1.10;;;;;;;;;;6188847;28;20295;-80
2023/02/27 10:26:22;;;;;;;1.30;1.30;;;;;;;;;;6172799;28;20292;-79
2023/02/27 10:29:31;;;;;;;1.10;1.10;;;;;;;;;;6190227;28;20287;-80
2023/02/27 10:32:39;;;;;;;1.00;1.00;;;;;;;;;;6190033;28;20319;-80
2023/02/27 10:35:45;;;;;;;1.00;1.00;;;;;;;;;;6172744;28;20308;-79
2023/02/27 10:38:54;;;;;;;2.73;1.10;;;;;;;;;;6171614;28;20307;-80
2023/02/27 10:42:05;;;;;;;0.93;0.93;;;;;;;;;;6164123;29;20315;-79
2023/02/27 10:45:14;;;;;;;1.00;1.00;;;;;;;;;;6165746;28;20297;-79
2023/02/27 10:48:22;;;;;;;1.07;1.07;;;;;;;;;;6182276;28;20301;-80
2023/02/27 10:51:30;;;;;;;1.80;1.10;;;;;;;;;;6173273;28;20357;-80
2023/02/27 10:54:37;;;;;;;1.23;1.23;;;;;;;;;;6189272;28;20301;-81
2023/02/27 10:57:43;;;;;;;1.00;1.00;;;;;;;;;;6188851;28;20307;-80
2023/02/27 11:00:56;;;;;;;1.20;1.20;;;;;;;;;;6189168;28;20305;-80
2023/02/27 11:04:04;;;;;;;1.20;1.20;;;;;;;;;;6188817;28;20301;-80
2023/02/27 11:07:14;;;;;;;1.10;1.10;;;;;;;;;;6172370;28;20295;-80
2023/02/27 11:10:23;;;;;;;0.80;0.80;;;;;;;;;;6164241;29;20293;-81
2023/02/27 11:13:31;;;;;;;1.10;1.10;;;;;;;;;;6174017;28;20318;-80
2023/02/27 11:16:48;;;;;;;1.10;1.10;;;;;;;;;;6189257;28;20463;-79
2023/02/27 11:19:55;;;;;;;1.17;1.17;;;;;;;;;;6188386;28;20301;-80
2023/02/27 11:23:04;;;;;;;0.80;0.80;;;;;;;;;;6188246;28;20300;-79
2023/02/27 11:26:15;;;;;;;1.97;0.90;;;;;;;;;;6188410;28;20295;-80
2023/02/27 11:29:21;;;;;;;2.43;1.00;;;;;;;;;;6188506;28;20478;-83
2023/02/27 11:32:30;;;;;;;0.93;0.93;;;;;;;;;;6188365;28;20304;-80
2023/02/27 11:35:39;;;;;;;1.00;1.00;;;;;;;;;;6188289;28;20302;-82
2023/02/27 11:38:51;;;;;;;1.10;1.10;;;;;;;;;;6188165;28;20303;-80
2023/02/27 11:41:59;;;;;;;1.10;1.10;;;;;;;;;;6188816;28;20300;-80
2023/02/27 11:45:07;;;;;;;1.10;1.10;;;;;;;;;;6188654;28;20300;-80
2023/02/27 11:48:20;;;;;;;1.20;1.20;;;;;;;;;;6174449;28;20601;-79
2023/02/27 11:51:32;;;;;;;1.10;1.10;;;;;;;;;;6191233;28;20305;-81
2023/02/27 11:54:40;;;;;;;1.20;1.10;;;;;;;;;;6189135;28;20312;-80
2023/02/27 11:57:47;;;;;;;1.40;1.30;;;;;;;;;;6186913;28;20299;-81
2023/02/27 12:00:56;;;;;;;0.90;0.90;;;;;;;;;;6187112;28;20296;-80
2023/02/27 12:04:09;;;;;;;1.80;1.10;;;;;;;;;;6187525;28;20300;-80
2023/02/27 12:07:20;;;;;;;0.93;0.93;;;;;;;;;;6187768;28;20300;-81
2023/02/27 12:10:28;;;;;;;1.10;1.07;;;;;;;;;;6185416;28;20293;-79
2023/02/27 12:13:35;;;;;;;2.37;1.10;;;;;;;;;;6186886;28;20364;-80
2023/02/27 12:16:43;;;;;;;0.93;0.93;;;;;;;;;;6170414;28;20276;-79
2023/02/27 12:20:06;;;;;;;0.90;0.90;;;;;;;;;;6186445;28;20546;-80
2023/02/27 12:23:23;;;;;;;1.20;1.20;;;;;;;;;;6169528;28;20630;-79
2023/02/27 12:26:34;;;;;;;2.70;0.83;;;;;;;;;;6187199;28;20325;-79
2023/02/27 12:29:44;;;;;;;1.00;1.00;;;;;;;;;;6186782;28;20304;-79
2023/02/27 12:32:53;;;;;;;2.67;1.00;;;;;;;;;;6169550;28;20316;-79
2023/02/27 12:36:01;;;;;;;0.90;0.90;;;;;;;;;;6185939;28;20301;-79
2023/02/27 12:39:15;;;;;;;1.00;1.00;;;;;;;;;;6186267;28;20389;-80
2023/02/27 12:42:38;;;;;;;0.90;0.90;;;;;;;;;;6186369;28;20297;-80
2023/02/27 12:46:01;;;;;;;1.00;1.00;;;;;;;;;;6187434;28;20294;-80
2023/02/27 12:49:16;;;;;;;0.97;0.97;;;;;;;;;;6187075;28;20501;-80
2023/02/27 12:52:29;;;;;;;0.97;0.97;;;;;;;;;;6186338;28;20301;-80
2023/02/27 12:55:39;;;;;;;1.00;0.97;;;;;;;;;;6185507;28;20460;-79
2023/02/27 12:58:50;;;;;;;1.10;1.00;;;;;;;;;;6186278;28;20302;-79
2023/02/27 13:02:03;;;;;;;2.73;0.90;;;;;;;;;;6187457;28;20612;-79
2023/02/27 13:05:27;;;;;;;0.90;0.90;;;;;;;;;;6196779;28;20290;-80
2023/02/27 13:08:48;;;;;;;1.60;0.90;;;;;;;;;;6195954;28;20304;-80
2023/02/27 13:12:01;;;;;;;0.97;0.90;;;;;;;;;;6191973;28;20289;-78
2023/02/27 13:15:16;;;;;;;3.00;0.90;;;;;;;;;;6191727;28;20586;-79
2023/02/27 13:18:32;;;;;;;1.03;0.87;;;;;;;;;;6188257;28;20306;-79
2023/02/27 13:21:40;;;;;;;2.27;0.97;;;;;;;;;;6189044;28;20325;-79
2023/02/27 13:24:48;;;;;;;0.97;0.93;;;;;;;;;;6186830;28;20301;-79
2023/02/27 13:27:59;;;;;;;1.50;0.80;;;;;;;;;;6186724;28;20297;-79
2023/02/27 13:31:08;;;;;;;3.30;0.87;;;;;;;;;;6186285;28;20332;-79
2023/02/27 13:34:20;;;;;;;1.60;1.00;;;;;;;;;;6185407;28;20290;-79
2023/02/27 13:37:25;;;;;;;0.70;0.70;;;;;;;;;;6184498;28;20452;-78
2023/02/27 13:40:33;;;;;;;1.10;1.00;;;;;;;;;;6186216;28;20289;-79
2023/02/27 13:43:40;;;;;;;1.90;0.90;;;;;;;;;;6184916;28;20309;-79
2023/02/27 13:46:56;;;;;;;1.73;0.97;;;;;;;;;;6186331;28;20307;-80
2023/02/27 13:50:02;;;;;;;1.00;0.90;;;;;;;;;;6185120;28;20380;-80
2023/02/27 13:53:13;;;;;;;0.90;0.90;;;;;;;;;;6185126;28;20296;-80
2023/02/27 13:56:21;;;;;;;1.10;1.10;;;;;;;;;;6168669;28;20293;-80
2023/02/27 13:59:29;;;;;;;1.40;1.08;;;;;;;;;;6185373;28;20304;-80
2023/02/27 14:02:43;;;;;;;0.93;0.93;;;;;;;;;;6184936;28;20317;-78
2023/02/27 14:06:05;;;;;;;0.87;0.87;;;;;;;;;;6185736;28;20289;-79
2023/02/27 14:09:12;;;;;;;2.37;0.90;;;;;;;;;;6185006;28;20305;-79
2023/02/27 14:12:30;;;;;;;0.70;0.70;;;;;;;;;;6184244;28;20577;-78
2023/02/27 14:15:53;;;;;;;0.70;0.70;;;;;;;;;;6185475;28;20477;-80
2023/02/27 14:19:00;;;;;;;0.70;0.70;;;;;;;;;;6184907;28;20297;-79
2023/02/27 14:22:37;;;;;;;0.80;0.80;;;;;;;;;;6187882;28;20304;-78
2023/02/27 14:25:46;;;;;;;0.73;0.73;;;;;;;;;;6187025;28;20577;-79
2023/02/27 14:28:55;;;;;;;0.93;0.90;;;;;;;;;;6189182;28;20472;-79
2023/02/27 14:32:05;;;;;;;2.17;0.80;;;;;;;;;;6189339;28;20293;-79
2023/02/27 14:35:16;;;;;;;0.80;0.80;;;;;;;;;;6188739;28;20306;-80
2023/02/27 14:38:21;;;;;;;0.77;0.77;;;;;;;;;;6189345;28;20321;-80
2023/02/27 14:41:37;;;;;;;1.10;1.00;;;;;;;;;;6188075;28;20298;-79
2023/02/27 14:45:01;;;;;;;0.80;0.80;;;;;;;;;;6189048;28;20298;-79
2023/02/27 14:48:09;;;;;;;0.80;0.80;;;;;;;;;;6188853;28;20305;-79
2023/02/27 14:51:16;;;;;;;1.10;1.10;;;;;;;;;;6171942;28;20498;-79
2023/02/27 14:54:22;;;;;;;0.87;0.87;;;;;;;;;;6188884;28;20300;-79
2023/02/27 14:57:27;;;;;;;1.60;0.90;;;;;;;;;;6188102;28;20289;-79
2023/02/27 15:00:35;;;;;;;1.40;0.80;;;;;;;;;;6189072;28;20305;-79
2023/02/27 15:03:46;;;;;;;0.90;0.90;;;;;;;;;;6171107;28;20322;-79
2023/02/27 15:06:53;;;;;;;0.60;0.60;;;;;;;;;;6188712;28;20396;-80
2023/02/27 15:10:00;;;;;;;1.10;1.10;;;;;;;;;;6188111;28;20367;-80
2023/02/27 15:13:15;;;;;;;0.90;0.90;;;;;;;;;;6188137;28;20302;-80
2023/02/27 15:16:28;;;;;;;1.53;0.90;;;;;;;;;;6155621;28;20293;-79
2023/02/27 15:19:36;;;;;;;2.27;1.07;;;;;;;;;;6187359;28;20609;-78
2023/02/27 15:22:41;;;;;;;3.80;0.80;;;;;;;;;;6187962;28;20308;-80
2023/02/27 15:25:46;;;;;;;2.50;0.90;;;;;;;;;;6188547;28;20292;-80
2023/02/27 15:28:52;;;;;;;1.83;1.10;;;;;;;;;;6187498;28;20300;-80
2023/02/27 15:31:57;;;;;;;2.07;0.80;;;;;;;;;;6186936;28;20301;-79
2023/02/27 15:35:06;;;;;;;2.87;0.90;;;;;;;;;;6187502;28;20581;-79
2023/02/27 15:38:25;;;;;;;1.10;1.10;;;;;;;;;;6188036;28;20301;-80
2023/02/27 15:41:30;;;;;;;1.00;1.00;;;;;;;;;;6191560;28;20305;-81
2023/02/27 15:44:40;;;;;;;2.67;1.20;;;;;;;;;;6192403;28;20476;-78
2023/02/27 15:47:46;;;;;;;1.20;1.20;;;;;;;;;;6190535;28;20305;-80
2023/02/27 15:50:59;;;;;;;14.57;2.23;;;;;;;;;;6191825;28;20299;-79
2023/02/27 15:54:07;;;;;;;2.63;1.30;;;;;;;;;;6167732;28;20301;-79
2023/02/27 15:57:14;;;;;;;1.37;1.27;;;;;;;;;;6169751;28;20293;-79
2023/02/27 16:00:21;;;;;;;3.10;1.40;;;;;;;;;;6181106;28;20392;-79
2023/02/27 16:03:33;;;;;;;4.77;2.30;;;;;;;;;;6189736;28;20303;-80
2023/02/27 16:06:40;;;;;;;3.43;1.77;;;;;;;;;;6192231;28;20489;-79
2023/02/27 16:10:19;;;;;;;7.00;1.70;;;;;;;;;;6184718;28;20303;-80
2023/02/27 16:13:33;;;;;;;1.60;1.40;;;;;;;;;;6166009;28;20331;-77
2023/02/27 16:16:40;;;;;;;1.47;1.47;;;;;;;;;;6169119;28;20284;-80
2023/02/27 16:19:45;;;;;;;1.30;1.30;;;;;;;;;;6187294;28;20299;-79
2023/02/27 16:23:03;;;;;;;4.67;1.40;;;;;;;;;;6187454;28;20323;-79
2023/02/27 16:26:27;;;;;;;1.20;1.20;;;;;;;;;;6186984;28;20318;-80
2023/02/27 16:29:35;;;;;;;2.43;1.80;;;;;;;;;;6186132;28;20317;-80
2023/02/27 16:32:42;;;;;;;3.90;1.60;;;;;;;;;;6186247;28;20306;-79
2023/02/27 16:35:48;;;;;;;1.87;1.30;;;;;;;;;;6185758;28;20583;-79
2023/02/27 16:38:55;;;;;;;2.67;1.40;;;;;;;;;;6155412;28;20300;-80
2023/02/27 16:42:01;;;;;;;1.63;1.53;;;;;;;;;;6189851;28;20318;-78
2023/02/27 16:45:08;;;;;;;1.80;1.63;;;;;;;;;;6188843;28;20315;-79
2023/02/27 16:48:14;;;;;;;5.40;1.90;;;;;;;;;;6187622;28;20296;-80
2023/02/27 16:51:22;;;;;;;3.03;2.07;;;;;;;;;;6186734;28;20339;-80
2023/02/27 16:54:28;;;;;;;3.43;1.70;;;;;;;;;;6185542;28;20290;-79
2023/02/27 16:57:33;;;;;;;2.70;1.90;;;;;;;;;;6185590;28;20477;-80
2023/02/27 17:00:39;;;;;;;3.07;2.60;;;;;;;;;;6186071;28;20310;-79
2023/02/27 17:03:45;;;;;;;2.40;2.20;;;;;;;;;;6167102;28;20298;-79
2023/02/27 17:06:50;;;;;;;1.40;1.40;;;;;;;;;;6185426;28;20310;-79
2023/02/27 17:09:58;;;;;;;1.40;1.30;;;;;;;;;;6186279;28;20292;-79
2023/02/27 17:13:04;;;;;;;1.60;1.50;;;;;;;;;;6184778;28;20446;-81
2023/02/27 17:16:11;;;;;;;1.30;1.30;;;;;;;;;;6184983;28;20300;-80
2023/02/27 17:19:20;;;;;;;1.70;1.57;;;;;;;;;;6183657;28;20301;-80
2023/02/27 17:22:25;;;;;;;1.40;1.40;;;;;;;;;;6165171;28;20300;-80
2023/02/27 17:25:32;;;;;;;3.43;1.60;;;;;;;;;;6185121;28;20270;-80
2023/02/27 17:28:38;;;;;;;2.00;1.40;;;;;;;;;;6184366;28;20487;-80
2023/02/27 17:31:43;;;;;;;2.07;1.40;;;;;;;;;;6185099;28;20293;-80
2023/02/27 17:34:48;;;;;;;1.33;1.33;;;;;;;;;;6166838;28;20328;-79
2023/02/27 17:37:54;;;;;;;1.97;1.63;;;;;;;;;;6167160;28;20299;-79
2023/02/27 17:41:05;;;;;;;4.97;1.60;;;;;;;;;;6184875;28;20613;-81
2023/02/27 17:44:12;;;;;;;1.10;1.10;;;;;;;;;;6184719;28;20304;-79
2023/02/27 17:47:18;;;;;;;4.23;1.50;;;;;;;;;;6199786;28;20556;-79
2023/02/27 17:50:23;;;;;;;4.70;1.60;;;;;;;;;;6166468;28;20300;-80
2023/02/27 17:53:28;;;;;;;1.90;1.80;;;;;;;;;;6184294;28;20466;-80
2023/02/27 17:56:35;;;;;;;2.40;1.57;;;;;;;;;;6169229;28;20296;-80
2023/02/27 17:59:42;;;;;;;1.53;1.50;;;;;;;;;;6202990;28;20296;-78
2023/02/27 18:02:47;;;;;;;3.07;1.80;;;;;;;;;;6161805;28;1212399;-80
2023/02/27 18:05:53;;;;;;;1.80;1.70;;;;;;;;;;6190357;28;20293;-79
2023/02/27 18:08:59;;;;;;;4.70;1.60;;;;;;;;;;6189926;28;20304;-79
2023/02/27 18:12:08;;;;;;;4.30;1.70;;;;;;;;;;6173774;28;20305;-78
2023/02/27 18:15:17;;;;;;;1.53;1.43;;;;;;;;;;6188894;28;20301;-79
2023/02/27 18:18:22;;;;;;;3.47;1.60;;;;;;;;;;6172545;28;20305;-77
2023/02/27 18:21:27;;;;;;;2.20;2.10;;;;;;;;;;6189712;28;20313;-80
2023/02/27 18:24:33;;;;;;;3.17;2.17;;;;;;;;;;6189709;28;20301;-80
2023/02/27 18:27:42;;;;;;;8.60;2.17;;;;;;;;;;6188033;28;20313;-78
2023/02/27 18:30:47;;;;;;;2.87;2.50;;;;;;;;;;6172411;28;20302;-80
2023/02/27 18:33:53;;;;;;;5.03;2.30;;;;;;;;;;6171875;28;20337;-79
2023/02/27 18:36:58;;;;;;;4.97;2.13;;;;;;;;;;6189298;28;20289;-80
2023/02/27 18:40:13;;;;;;;2.83;2.20;;;;;;;;;;6189012;28;20289;-79
2023/02/27 18:43:20;;;;;;;10.93;2.20;;;;;;;;;;6188325;28;20440;-80
2023/02/27 18:46:25;;;;;;;3.80;1.83;;;;;;;;;;6162715;28;20281;-80
2023/02/27 18:49:31;;;;;;;6.17;2.27;;;;;;;;;;6188332;28;20294;-81
2023/02/27 18:52:39;;;;;;;6.47;1.93;;;;;;;;;;6188848;28;20270;-80
2023/02/27 18:55:45;;;;;;;2.20;2.00;;;;;;;;;;6189624;28;20506;-80